Time;durP1;ratioP1;P1;durP2;ratioP2;P2;SDS_P1;SDS_P2;PMS_P1;PMS_P2;Temp;Humidity;BMP_temperature;BMP_pressure;BME280_temperature;BME280_humidity;BME280_pressure;Samples;Min_cycle;Max_cycle;Signal;HPM_P1;HPM_P2
2021/03/24 00:00:42;;;;;;;26.63;15.43;;;7.60;79.20;;;;;;5012553;28;20457;-77
2021/03/24 00:03:28;;;;;;;28.65;16.92;;;7.70;79.40;;;;;;5027069;28;20061;-77
2021/03/24 00:06:14;;;;;;;30.83;15.18;;;7.60;79.40;;;;;;5026777;28;20108;-77
2021/03/24 00:09:03;;;;;;;26.65;16.88;;;7.60;79.60;;;;;;5027020;28;20045;-77
2021/03/24 00:11:49;;;;;;;32.25;16.83;;;7.70;79.80;;;;;;5027218;28;20049;-78
2021/03/24 00:14:35;;;;;;;28.60;16.67;;;7.60;79.80;;;;;;5026923;28;20045;-77
2021/03/24 00:17:21;;;;;;;28.92;15.65;;;7.60;79.90;;;;;;4999467;28;20049;-77
2021/03/24 00:20:11;;;;;;;32.58;18.15;;;7.60;80.10;;;;;;5012613;28;20163;-78
2021/03/24 00:22:57;;;;;;;31.33;17.38;;;7.60;80.40;;;;;;5030711;28;20075;-78
2021/03/24 00:25:43;;;;;;;34.80;19.40;;;7.60;80.50;;;;;;5016721;28;20095;-77
2021/03/24 00:28:29;;;;;;;37.38;20.52;;;7.60;80.60;;;;;;5030606;28;20045;-78
2021/03/24 00:31:15;;;;;;;31.13;17.05;;;7.60;80.70;;;;;;5029991;28;20063;-78
2021/03/24 00:34:00;;;;;;;36.70;19.98;;;7.60;81.00;;;;;;5016730;28;20084;-77
2021/03/24 00:36:46;;;;;;;28.25;17.77;;;7.60;81.00;;;;;;5030437;28;20103;-77
2021/03/24 00:39:32;;;;;;;33.47;18.90;;;7.60;81.20;;;;;;5016673;28;20469;-78
2021/03/24 00:42:18;;;;;;;35.60;19.27;;;7.60;81.50;;;;;;5016048;28;20485;-77
2021/03/24 00:45:05;;;;;;;40.88;20.67;;;7.60;81.40;;;;;;5015986;28;20060;-77
2021/03/24 00:47:52;;;;;;;42.28;24.55;;;7.60;81.40;;;;;;5030131;28;20388;-78
2021/03/24 00:50:37;;;;;;;35.58;19.13;;;7.60;81.50;;;;;;5030338;28;20132;-77
2021/03/24 00:53:24;;;;;;;44.97;23.75;;;7.60;81.50;;;;;;5016210;28;20049;-77
2021/03/24 00:56:09;;;;;;;37.85;19.65;;;7.50;81.50;;;;;;5015644;28;20523;-78
2021/03/24 00:58:55;;;;;;;40.45;22.02;;;7.60;81.80;;;;;;5002888;28;20051;-77
2021/03/24 01:01:42;;;;;;;40.10;23.42;;;7.60;82.00;;;;;;5016468;28;20049;-77
2021/03/24 01:04:28;;;;;;;34.88;19.55;;;7.60;82.00;;;;;;5030218;28;20045;-77
2021/03/24 01:07:14;;;;;;;35.10;20.40;;;7.60;82.10;;;;;;5015742;28;20049;-78
2021/03/24 01:10:00;;;;;;;37.95;20.98;;;7.60;82.10;;;;;;5016171;28;20049;-77
2021/03/24 01:12:46;;;;;;;45.10;22.90;;;7.60;82.20;;;;;;5016346;28;20049;-77
2021/03/24 01:15:32;;;;;;;43.50;23.58;;;7.50;82.40;;;;;;5010004;28;20050;-77
2021/03/24 01:18:19;;;;;;;43.08;23.58;;;7.50;82.60;;;;;;4995989;28;20144;-77
2021/03/24 01:21:05;;;;;;;45.33;25.58;;;7.50;82.80;;;;;;4995488;28;20053;-77
2021/03/24 01:23:51;;;;;;;47.58;24.60;;;7.50;82.90;;;;;;4996313;28;20049;-77
2021/03/24 01:26:37;;;;;;;49.03;25.40;;;7.50;83.00;;;;;;5005212;28;20115;-77
2021/03/24 01:29:23;;;;;;;50.03;24.45;;;7.50;83.20;;;;;;5015067;28;20053;-77
2021/03/24 01:32:08;;;;;;;46.97;25.48;;;7.50;83.20;;;;;;5028629;28;20422;-77
2021/03/24 01:34:54;;;;;;;47.08;26.73;;;7.50;83.40;;;;;;5015298;28;20512;-77
2021/03/24 01:37:41;;;;;;;53.70;27.50;;;7.50;83.00;;;;;;5029478;28;20046;-77
2021/03/24 01:40:32;;;;;;;51.25;28.50;;;7.50;83.40;;;;;;5015551;28;20366;-77
2021/03/24 01:43:29;;;;;;;56.92;28.90;;;7.50;83.40;;;;;;5028536;28;20050;-77
2021/03/24 01:46:24;;;;;;;54.95;28.17;;;7.40;83.50;;;;;;5028610;28;20049;-77
2021/03/24 01:49:18;;;;;;;;;;;7.50;83.40;;;;;;5015193;28;20076;-77
2021/03/24 01:52:09;;;;;;;53.20;25.90;;;7.50;85.50;;;;;;5028683;28;19932;-77
2021/03/24 01:54:55;;;;;;;49.85;25.15;;;7.50;83.70;;;;;;5027828;28;20055;-77
2021/03/24 01:57:45;;;;;;;49.10;25.75;;;7.50;83.90;;;;;;4995669;28;20042;-77
2021/03/24 02:00:46;;;;;;;46.55;25.75;;;7.50;83.70;;;;;;5008578;28;20160;-77
2021/03/24 02:03:32;;;;;;;55.80;29.45;;;7.50;83.50;;;;;;4995673;28;20057;-77
2021/03/24 02:06:36;;;;;;;51.45;24.67;;;7.50;83.80;;;;;;4981559;28;20057;-77
2021/03/24 02:09:32;;;;;;;49.15;26.63;;;7.50;83.50;;;;;;5016311;28;20045;-77
2021/03/24 02:12:33;;;;;;;47.03;24.83;;;7.50;83.40;;;;;;5028199;28;20164;-77
2021/03/24 02:15:28;;;;;;;47.60;24.92;;;7.50;84.00;;;;;;5013523;28;20132;-77
2021/03/24 02:18:15;;;;;;;50.80;25.65;;;7.40;83.20;;;;;;5027942;28;20045;-77
2021/03/24 02:21:08;;;;;;;56.28;25.85;;;7.50;83.70;;;;;;5028361;28;20056;-77
2021/03/24 02:24:20;;;;;;;49.10;26.40;;;7.40;83.30;;;;;;5015002;28;20112;-77
2021/03/24 02:27:36;;;;;;;53.63;25.13;;;7.50;83.50;;;;;;5014132;28;20454;-77
2021/03/24 02:30:31;;;;;;;48.90;27.52;;;7.50;83.70;;;;;;5027319;28;20053;-77
2021/03/24 02:33:22;;;;;;;46.20;26.55;;;7.40;83.50;;;;;;5028193;28;20049;-77
2021/03/24 02:36:12;;;;;;;54.03;25.92;;;7.50;83.40;;;;;;5041409;28;20051;-77
2021/03/24 02:39:01;;;;;;;56.80;27.67;;;7.50;83.70;;;;;;5055657;28;20136;-78
2021/03/24 02:41:49;;;;;;;58.13;29.40;;;7.50;83.80;;;;;;5014042;28;20053;-78
2021/03/24 02:44:36;;;;;;;53.58;25.92;;;7.60;83.80;;;;;;5027570;28;20049;-78
2021/03/24 02:47:22;;;;;;;50.40;25.85;;;7.40;83.60;;;;;;5027271;28;20053;-77
2021/03/24 02:50:11;;;;;;;60.97;28.90;;;7.50;83.90;;;;;;5027271;28;20100;-77
2021/03/24 02:52:59;;;;;;;57.75;29.52;;;7.50;83.90;;;;;;5028136;28;20049;-77
2021/03/24 02:55:45;;;;;;;56.00;27.23;;;7.40;83.80;;;;;;5014577;28;20053;-77
2021/03/24 02:58:31;;;;;;;50.80;26.08;;;7.40;84.00;;;;;;5027609;28;20107;-77
2021/03/24 03:01:22;;;;;;;54.70;28.50;;;7.40;83.70;;;;;;5027037;28;20076;-78
2021/03/24 03:04:21;;;;;;;52.80;27.42;;;7.40;83.90;;;;;;5027375;28;20049;-77
2021/03/24 03:07:13;;;;;;;50.17;27.73;;;7.40;84.00;;;;;;5027234;28;20095;-76
2021/03/24 03:10:21;;;;;;;52.22;27.90;;;7.40;83.90;;;;;;5027589;28;20052;-77
2021/03/24 03:13:10;;;;;;;54.97;27.98;;;7.40;84.50;;;;;;5013363;28;20041;-78
2021/03/24 03:16:03;;;;;;;54.80;30.70;;;7.40;83.90;;;;;;5027858;28;20422;-77
2021/03/24 03:18:59;;;;;;;50.33;28.08;;;7.40;83.80;;;;;;5028085;28;20720;-77
2021/03/24 03:21:53;;;;;;;53.53;27.50;;;7.40;83.90;;;;;;5027732;28;20049;-78
2021/03/24 03:24:45;;;;;;;50.78;28.38;;;7.40;84.40;;;;;;5027663;28;20048;-77
2021/03/24 03:27:31;;;;;;;50.10;28.73;;;7.40;84.00;;;;;;5027701;28;20057;-77
2021/03/24 03:30:19;;;;;;;48.85;28.65;;;7.40;84.20;;;;;;4999651;28;20111;-77
2021/03/24 03:33:08;;;;;;;57.00;28.75;;;7.40;84.40;;;;;;5026976;28;20041;-77
2021/03/24 03:35:55;;;;;;;57.67;29.08;;;7.30;84.10;;;;;;5013419;28;20053;-77
2021/03/24 03:38:43;;;;;;;52.38;27.77;;;7.30;84.60;;;;;;5013724;28;20049;-77
2021/03/24 03:41:31;;;;;;;62.72;31.00;;;7.30;84.30;;;;;;5013688;28;20053;-77
2021/03/24 03:44:18;;;;;;;59.55;29.23;;;7.30;84.40;;;;;;4999798;28;20053;-77
2021/03/24 03:47:10;;;;;;;53.17;29.33;;;7.30;84.40;;;;;;5013161;28;20158;-77
2021/03/24 03:49:56;;;;;;;61.20;31.15;;;7.30;84.20;;;;;;5013315;28;20052;-78
2021/03/24 03:53:20;;;;;;;57.05;30.85;;;7.20;84.50;;;;;;5013202;28;20064;-77
2021/03/24 03:56:08;;;;;;;57.30;29.70;;;7.20;85.20;;;;;;5028952;28;20056;-77
2021/03/24 03:59:08;;;;;;;56.08;30.40;;;7.20;85.30;;;;;;5017271;28;20046;-77
2021/03/24 04:02:03;;;;;;;59.40;28.77;;;7.20;85.20;;;;;;5017369;28;20489;-76
2021/03/24 04:04:56;;;;;;;57.40;31.88;;;7.20;85.10;;;;;;5017284;28;20045;-77
2021/03/24 04:07:47;;;;;;;55.13;30.70;;;7.10;84.90;;;;;;5031097;28;20053;-77
2021/03/24 04:10:37;;;;;;;62.58;33.00;;;7.10;84.60;;;;;;5030531;28;20045;-77
2021/03/24 04:13:25;;;;;;;58.17;29.67;;;7.10;85.10;;;;;;5030139;28;20394;-76
2021/03/24 04:16:11;;;;;;;53.63;29.23;;;7.00;84.90;;;;;;5030244;28;20098;-77
2021/03/24 04:19:05;;;;;;;62.00;32.75;;;7.00;85.10;;;;;;5017191;28;20056;-77
2021/03/24 04:21:59;;;;;;;58.53;30.40;;;7.00;85.00;;;;;;5030502;28;20045;-77
2021/03/24 04:24:53;;;;;;;60.35;31.63;;;6.90;85.00;;;;;;5016854;28;20053;-77
2021/03/24 04:27:39;;;;;;;63.67;33.80;;;6.90;85.40;;;;;;5030951;28;20434;-77
2021/03/24 04:30:33;;;;;;;60.72;32.65;;;6.90;85.20;;;;;;5030016;28;20286;-77
2021/03/24 04:33:19;;;;;;;63.38;34.17;;;6.80;85.30;;;;;;5016407;28;20395;-77
2021/03/24 04:36:34;;;;;;;62.58;32.35;;;6.80;85.40;;;;;;5010446;28;20692;-77
2021/03/24 04:39:26;;;;;;;59.65;31.30;;;6.80;85.20;;;;;;5001181;28;20045;-77
2021/03/24 04:42:17;;;;;;;60.63;30.95;;;6.70;85.70;;;;;;5029661;28;20056;-77
2021/03/24 04:45:29;;;;;;;61.90;33.13;;;6.80;85.40;;;;;;5016181;28;20057;-76
2021/03/24 04:48:25;;;;;;;61.95;32.67;;;6.70;85.60;;;;;;5027517;28;20058;-77
2021/03/24 04:51:20;;;;;;;59.22;32.92;;;6.60;85.50;;;;;;5029630;28;20056;-77
2021/03/24 04:54:15;;;;;;;62.95;31.95;;;6.60;85.30;;;;;;5029517;28;20080;-77
2021/03/24 04:57:11;;;;;;;64.55;32.67;;;6.60;85.70;;;;;;5016400;28;20352;-77
2021/03/24 05:00:05;;;;;;;64.93;32.20;;;6.60;85.90;;;;;;5030012;28;20521;-77
2021/03/24 05:02:55;;;;;;;57.67;32.83;;;6.50;85.70;;;;;;5029931;28;20068;-77
2021/03/24 05:05:46;;;;;;;60.25;32.55;;;6.50;86.00;;;;;;5029946;28;20100;-77
2021/03/24 05:08:38;;;;;;;64.82;32.65;;;6.40;85.70;;;;;;5015743;28;20049;-77
2021/03/24 05:11:45;;;;;;;62.33;33.42;;;6.40;85.80;;;;;;5029080;28;20544;-77
2021/03/24 05:15:03;;;;;;;70.72;37.33;;;6.40;86.70;;;;;;5030045;28;20069;-77
2021/03/24 05:17:50;;;;;;;60.45;32.97;;;6.30;87.20;;;;;;5016107;28;20136;-77
2021/03/24 05:20:50;;;;;;;69.25;36.70;;;6.30;86.80;;;;;;5015923;28;20060;-77
2021/03/24 05:23:36;;;;;;;65.93;33.22;;;6.30;86.60;;;;;;5015760;28;20055;-77
2021/03/24 05:26:30;;;;;;;66.95;32.67;;;6.20;87.00;;;;;;5028919;28;20389;-77
2021/03/24 05:29:29;;;;;;;66.50;33.95;;;6.30;86.70;;;;;;5015081;28;20535;-77
2021/03/24 05:32:30;;;;;;;64.53;37.13;;;6.20;86.60;;;;;;5014835;28;20053;-77
2021/03/24 05:35:52;;;;;;;69.68;37.00;;;6.20;87.60;;;;;;5008970;28;20046;-77
2021/03/24 05:38:47;;;;;;;68.90;33.60;;;6.10;87.20;;;;;;5009741;28;20149;-77
2021/03/24 05:41:45;;;;;;;67.10;36.25;;;6.10;87.20;;;;;;4995813;28;20463;-76
2021/03/24 05:45:08;;;;;;;78.47;37.72;;;6.10;87.80;;;;;;5040563;28;20041;-77
2021/03/24 05:48:03;;;;;;;71.50;37.15;;;6.10;89.10;;;;;;5015419;28;20056;-79
2021/03/24 05:51:10;;;;;;;67.32;37.10;;;6.10;88.00;;;;;;5028978;28;20415;-78
2021/03/24 05:54:18;;;;;;;73.32;37.85;;;6.00;88.40;;;;;;5015435;28;20698;-79
2021/03/24 05:57:26;;;;;;;69.47;34.95;;;6.10;87.90;;;;;;5028201;28;20055;-78
2021/03/24 06:00:42;;;;;;;73.00;39.05;;;6.10;89.50;;;;;;5028140;28;20065;-79
2021/03/24 06:03:46;;;;;;;72.45;37.75;;;6.00;88.90;;;;;;5015179;28;20152;-79
2021/03/24 06:06:51;;;;;;;77.28;38.08;;;6.00;88.80;;;;;;5015000;28;20049;-79
2021/03/24 06:10:02;;;;;;;72.73;37.00;;;6.10;87.70;;;;;;5028885;28;20155;-79
2021/03/24 06:13:09;;;;;;;74.93;37.20;;;6.10;88.10;;;;;;5014606;28;20298;-79
2021/03/24 06:16:17;;;;;;;70.57;37.13;;;6.10;87.80;;;;;;5028674;28;20114;-79
2021/03/24 06:19:16;;;;;;;67.90;37.92;;;6.10;87.90;;;;;;5027897;28;20053;-79
2021/03/24 06:22:10;;;;;;;83.38;41.88;;;6.10;87.50;;;;;;5028526;28;20061;-79
2021/03/24 06:25:01;;;;;;;73.57;38.95;;;6.10;88.30;;;;;;5028616;28;20461;-79
2021/03/24 06:28:20;;;;;;;75.35;41.35;;;6.10;88.10;;;;;;5028190;28;20053;-79
2021/03/24 06:31:40;;;;;;;81.85;41.60;;;6.10;88.00;;;;;;5027524;28;20104;-79
2021/03/24 06:34:51;;;;;;;78.20;39.08;;;6.20;88.90;;;;;;5027505;28;20041;-79
2021/03/24 06:38:14;;;;;;;85.68;43.92;;;6.20;88.10;;;;;;5008264;28;20508;-79
2021/03/24 06:41:14;;;;;;;85.95;39.95;;;6.20;89.10;;;;;;5004815;28;20079;-78
2021/03/24 06:44:29;;;;;;;80.00;39.95;;;6.30;87.70;;;;;;5028074;28;20052;-78
2021/03/24 06:47:30;;;;;;;80.78;40.97;;;6.40;88.00;;;;;;5013313;28;20049;-79
2021/03/24 06:50:34;;;;;;;80.13;43.22;;;6.50;87.80;;;;;;5027260;28;20041;-79
2021/03/24 06:53:57;;;;;;;75.55;38.25;;;6.50;87.80;;;;;;5018653;28;20076;-79
2021/03/24 06:57:02;;;;;;;82.97;42.63;;;6.60;88.00;;;;;;5005019;28;20083;-79
2021/03/24 06:59:48;;;;;;;;;;;6.70;88.00;;;;;;5020225;28;20056;-79
2021/03/24 07:03:11;;;;;;;77.05;38.65;;;6.60;89.00;;;;;;5019913;28;19920;-79
2021/03/24 07:06:27;;;;;;;90.50;43.05;;;6.70;87.60;;;;;;5019893;28;20045;-79
2021/03/24 07:09:26;;;;;;;81.97;43.28;;;6.80;87.10;;;;;;5032720;28;20076;-79
2021/03/24 07:12:26;;;;;;;76.40;41.13;;;6.80;86.80;;;;;;5019184;28;20690;-78
2021/03/24 07:15:16;;;;;;;90.55;44.75;;;6.80;86.90;;;;;;5021967;28;20063;-79
2021/03/24 07:18:27;;;;;;;85.55;41.72;;;6.80;86.90;;;;;;5019682;28;20079;-76
2021/03/24 07:21:39;;;;;;;86.18;45.65;;;6.90;87.10;;;;;;5032675;28;20048;-77
2021/03/24 07:25:03;;;;;;;86.40;44.65;;;7.00;87.10;;;;;;5032687;28;20049;-76
2021/03/24 07:28:00;;;;;;;87.20;43.08;;;7.00;87.80;;;;;;5033344;28;20052;-76
2021/03/24 07:31:12;;;;;;;83.72;46.42;;;7.00;86.70;;;;;;5037556;28;20102;-76
2021/03/24 07:34:37;;;;;;;85.05;42.72;;;7.10;87.00;;;;;;5039667;28;20065;-76
2021/03/24 07:38:00;;;;;;;88.15;43.33;;;8.10;86.30;;;;;;5028929;28;20045;-76
2021/03/24 07:41:25;;;;;;;78.72;41.65;;;9.10;82.80;;;;;;5029063;28;20114;-76
2021/03/24 07:44:18;;;;;;;78.63;43.88;;;9.80;80.80;;;;;;5039360;28;20446;-77
2021/03/24 07:47:10;;;;;;;80.22;41.65;;;10.20;80.40;;;;;;5039165;28;20055;-76
2021/03/24 07:50:08;;;;;;;79.13;41.78;;;10.70;79.30;;;;;;5026155;28;20048;-76
2021/03/24 07:53:02;;;;;;;80.97;44.83;;;11.00;78.80;;;;;;5054107;28;20049;-76
2021/03/24 07:56:01;;;;;;;76.03;41.53;;;11.30;76.50;;;;;;5039363;28;20133;-77
2021/03/24 07:59:14;;;;;;;81.30;42.33;;;11.60;77.10;;;;;;5039799;28;20701;-76
2021/03/24 08:02:24;;;;;;;76.95;42.92;;;11.90;74.60;;;;;;5039529;28;20056;-76
2021/03/24 08:06:11;;;;;;;82.00;43.08;;;12.20;76.10;;;;;;5025494;28;20112;-76
2021/03/24 08:09:24;;;;;;;76.43;42.53;;;12.40;71.30;;;;;;4940792;29;20043;-76
2021/03/24 08:12:41;;;;;;;75.30;43.42;;;12.80;72.60;;;;;;4945762;28;20061;-76
2021/03/24 08:15:37;;;;;;;75.32;40.65;;;13.00;71.40;;;;;;5033496;28;20051;-76
2021/03/24 08:18:35;;;;;;;77.13;41.45;;;13.10;73.00;;;;;;5039194;28;20168;-77
2021/03/24 08:21:21;;;;;;;70.97;39.20;;;13.30;71.50;;;;;;5055307;28;20064;-77
2021/03/24 08:23:57;;;;;;;69.95;38.45;;;13.50;70.20;;;;;;5037103;28;20041;-78
2021/03/24 08:26:22;;;;;;;61.47;36.15;;;13.70;68.90;;;;;;5054001;28;20064;-77
2021/03/24 08:28:55;;;;;;;60.25;34.92;;;13.60;71.80;;;;;;5036675;28;20095;-77
2021/03/24 08:31:56;;;;;;;62.80;36.80;;;13.50;70.10;;;;;;5053577;28;20642;-78
2021/03/24 08:34:57;;;;;;;54.63;33.42;;;13.50;69.60;;;;;;5052867;28;20116;-78
2021/03/24 08:37:46;;;;;;;63.13;33.72;;;13.60;72.80;;;;;;4981554;28;20082;-78
2021/03/24 08:40:39;;;;;;;61.55;34.17;;;13.70;69.00;;;;;;5050381;28;20044;-77
2021/03/24 08:43:23;;;;;;;61.03;34.83;;;13.70;67.60;;;;;;5049308;28;20045;-78
2021/03/24 08:46:11;;;;;;;62.38;35.85;;;13.60;71.80;;;;;;5051526;28;20033;-77
2021/03/24 08:48:44;;;;;;;57.05;35.22;;;13.50;69.60;;;;;;5033765;28;20036;-77
2021/03/24 08:51:22;;;;;;;61.17;33.90;;;13.40;72.60;;;;;;5032674;28;20190;-77
2021/03/24 08:53:57;;;;;;;51.38;32.33;;;13.40;71.10;;;;;;5050739;28;20033;-77
2021/03/24 08:56:29;;;;;;;58.58;35.03;;;13.40;72.00;;;;;;5050039;28;20068;-77
2021/03/24 08:59:01;;;;;;;54.28;32.53;;;13.30;72.80;;;;;;5050939;28;20049;-77
2021/03/24 09:01:46;;;;;;;52.72;31.27;;;13.20;72.50;;;;;;5050146;28;20346;-77
2021/03/24 09:04:37;;;;;;;57.80;34.25;;;13.10;70.40;;;;;;5036146;28;20063;-77
2021/03/24 09:07:25;;;;;;;59.17;33.67;;;13.00;71.70;;;;;;5051228;28;20713;-77
2021/03/24 09:10:15;;;;;;;57.92;31.35;;;12.80;70.60;;;;;;5050765;28;20105;-78
2021/03/24 09:12:52;;;;;;;68.40;38.05;;;12.60;70.20;;;;;;5033255;28;20493;-77
2021/03/24 09:15:34;;;;;;;55.83;32.33;;;12.50;72.30;;;;;;5032428;28;20343;-77
2021/03/24 09:18:13;;;;;;;54.28;30.73;;;12.50;71.20;;;;;;5050256;28;20033;-77
2021/03/24 09:21:19;;;;;;;59.55;31.75;;;12.30;72.10;;;;;;5050714;28;20430;-77
2021/03/24 09:23:50;;;;;;;55.97;31.15;;;12.10;71.40;;;;;;5022157;28;20061;-77
2021/03/24 09:26:54;;;;;;;56.10;32.28;;;12.00;75.30;;;;;;5031983;28;20037;-77
2021/03/24 09:29:33;;;;;;;51.55;29.77;;;12.00;73.50;;;;;;5032220;28;20122;-77
2021/03/24 09:32:08;;;;;;;54.17;31.70;;;12.00;72.50;;;;;;5037581;28;20048;-77
2021/03/24 09:35:22;;;;;;;55.28;30.58;;;12.00;72.80;;;;;;5050101;28;20085;-77
2021/03/24 09:38:09;;;;;;;61.15;33.10;;;11.90;74.40;;;;;;4986466;28;20568;-77
2021/03/24 09:40:37;;;;;;;58.83;30.35;;;12.00;72.10;;;;;;5038721;28;20354;-77
2021/03/24 09:43:15;;;;;;;58.97;33.05;;;12.10;76.70;;;;;;5047953;28;20437;-77
2021/03/24 09:45:42;;;;;;;53.70;30.15;;;12.20;76.90;;;;;;5038145;28;20099;-77
2021/03/24 09:48:13;;;;;;;51.97;31.08;;;12.30;76.20;;;;;;5049281;28;20426;-76
2021/03/24 09:51:01;;;;;;;60.42;31.50;;;12.30;75.90;;;;;;5036218;28;20037;-77
2021/03/24 09:53:29;;;;;;;50.70;31.27;;;12.30;74.10;;;;;;5048170;28;20048;-77
2021/03/24 09:55:55;;;;;;;52.15;31.88;;;12.30;75.70;;;;;;5031401;28;20044;-77
2021/03/24 09:58:24;;;;;;;54.00;32.47;;;12.40;75.40;;;;;;5028202;28;20079;-77
2021/03/24 10:01:10;;;;;;;52.80;31.25;;;12.40;73.50;;;;;;5022888;28;20064;-77
2021/03/24 10:03:42;;;;;;;52.45;32.92;;;12.30;74.50;;;;;;5050011;28;20104;-76
2021/03/24 10:06:37;;;;;;;52.85;31.38;;;12.30;73.10;;;;;;5048327;28;20040;-77
2021/03/24 10:09:05;;;;;;;57.63;33.92;;;12.40;70.60;;;;;;5027484;28;20436;-77
2021/03/24 10:11:41;;;;;;;54.85;33.13;;;12.40;75.40;;;;;;5049171;28;20045;-77
2021/03/24 10:14:11;;;;;;;56.70;32.55;;;12.50;74.20;;;;;;5048130;28;20064;-77
2021/03/24 10:16:43;;;;;;;52.90;31.90;;;12.60;75.00;;;;;;5018124;28;20041;-77
2021/03/24 10:19:34;;;;;;;50.45;29.92;;;12.60;74.50;;;;;;5048605;28;20084;-77
2021/03/24 10:22:31;;;;;;;46.13;27.10;;;12.80;69.30;;;;;;5030836;28;20053;-77
2021/03/24 10:25:20;;;;;;;50.78;31.27;;;12.80;71.00;;;;;;5064752;28;20040;-77
2021/03/24 10:27:50;;;;;;;48.20;26.75;;;12.90;73.70;;;;;;5058537;28;20533;-77
2021/03/24 10:30:42;;;;;;;42.10;26.55;;;13.00;74.30;;;;;;5055800;28;20041;-77
2021/03/24 10:33:24;;;;;;;44.50;24.38;;;13.10;69.30;;;;;;5049025;28;20045;-77
2021/03/24 10:35:59;;;;;;;45.88;26.52;;;13.20;72.20;;;;;;5050395;28;20051;-77
2021/03/24 10:39:02;;;;;;;51.90;29.88;;;13.30;71.10;;;;;;5062962;28;20051;-78
2021/03/24 10:41:37;;;;;;;48.67;28.52;;;13.40;69.00;;;;;;5051117;28;20106;-78
2021/03/24 10:44:22;;;;;;;42.75;28.40;;;13.50;72.50;;;;;;5066241;28;20067;-77
2021/03/24 10:47:08;;;;;;;43.35;26.45;;;13.60;69.50;;;;;;5068987;28;20040;-77
2021/03/24 10:49:58;;;;;;;44.60;26.30;;;13.60;68.10;;;;;;5069198;28;20032;-77
2021/03/24 10:52:30;;;;;;;44.78;24.95;;;13.50;71.30;;;;;;5036884;28;20056;-77
2021/03/24 10:55:18;;;;;;;41.55;26.80;;;13.60;72.00;;;;;;5052719;28;20040;-77
2021/03/24 10:58:11;;;;;;;39.72;24.92;;;13.80;69.30;;;;;;5049084;28;20048;-77
2021/03/24 11:01:14;;;;;;;45.00;26.08;;;14.00;67.40;;;;;;5049373;28;20061;-77
2021/03/24 11:03:59;;;;;;;43.38;25.42;;;14.10;66.30;;;;;;5047646;28;20105;-78
2021/03/24 11:06:35;;;;;;;39.03;23.50;;;14.10;71.90;;;;;;5047558;28;20418;-78
2021/03/24 11:09:13;;;;;;;39.72;23.77;;;14.20;68.80;;;;;;5059683;28;20044;-77
2021/03/24 11:11:50;;;;;;;36.15;21.58;;;14.10;67.00;;;;;;5050829;28;20043;-77
2021/03/24 11:14:29;;;;;;;40.53;22.67;;;14.10;70.40;;;;;;5063010;28;20040;-77
2021/03/24 11:17:04;;;;;;;39.42;24.77;;;14.00;67.90;;;;;;5069784;28;20500;-77
2021/03/24 11:19:35;;;;;;;42.13;24.85;;;14.10;68.50;;;;;;5069068;28;20464;-77
2021/03/24 11:22:06;;;;;;;36.85;23.40;;;14.20;70.40;;;;;;5068680;28;20041;-77
2021/03/24 11:24:59;;;;;;;38.40;22.75;;;14.30;70.20;;;;;;5068429;28;20547;-77
2021/03/24 11:27:39;;;;;;;34.22;22.60;;;14.40;64.70;;;;;;5050344;28;20037;-77
2021/03/24 11:30:20;;;;;;;38.17;24.40;;;14.50;68.20;;;;;;5050004;28;20052;-77
2021/03/24 11:32:49;;;;;;;37.35;23.08;;;14.50;67.60;;;;;;5047847;28;20048;-77
2021/03/24 11:35:23;;;;;;;43.22;24.05;;;14.60;66.40;;;;;;5033074;28;20037;-77
2021/03/24 11:38:10;;;;;;;39.00;22.48;;;14.50;67.40;;;;;;5030975;28;20037;-77
2021/03/24 11:40:43;;;;;;;35.80;23.88;;;14.60;67.90;;;;;;5066999;28;20051;-77
2021/03/24 11:43:18;;;;;;;34.92;24.48;;;14.60;68.90;;;;;;5042799;28;20040;-77
2021/03/24 11:45:45;;;;;;;39.97;23.38;;;14.80;67.50;;;;;;5048761;28;20068;-77
2021/03/24 11:48:35;;;;;;;42.53;24.27;;;14.80;67.90;;;;;;5047721;28;20119;-77
2021/03/24 11:51:36;;;;;;;34.58;23.63;;;14.80;66.40;;;;;;5049160;28;20056;-77
2021/03/24 11:54:08;;;;;;;36.47;22.23;;;14.80;65.80;;;;;;5053333;28;20059;-77
2021/03/24 11:57:06;;;;;;;33.85;21.67;;;15.00;66.70;;;;;;5068010;28;20043;-77
2021/03/24 12:00:06;;;;;;;34.47;22.33;;;15.10;61.60;;;;;;5050443;28;20048;-77
2021/03/24 12:02:51;;;;;;;43.10;23.88;;;15.10;61.10;;;;;;5068150;28;20040;-77
2021/03/24 12:05:28;;;;;;;36.15;20.67;;;15.10;67.50;;;;;;5049861;28;20045;-77
2021/03/24 12:08:14;;;;;;;36.08;21.88;;;15.20;65.60;;;;;;5060394;28;20493;-77
2021/03/24 12:10:42;;;;;;;31.88;21.45;;;15.30;61.20;;;;;;5048352;28;20033;-77
2021/03/24 12:13:22;;;;;;;33.65;21.10;;;15.40;66.50;;;;;;5030539;28;20048;-77
2021/03/24 12:16:12;;;;;;;33.63;20.67;;;15.40;60.30;;;;;;5029113;28;20195;-77
2021/03/24 12:18:49;;;;;;;36.53;22.13;;;15.40;58.20;;;;;;5032707;28;20116;-77
2021/03/24 12:21:38;;;;;;;37.95;22.38;;;15.40;64.20;;;;;;5032137;28;20124;-77
2021/03/24 12:24:39;;;;;;;35.83;22.80;;;15.30;60.60;;;;;;5030362;28;20120;-78
2021/03/24 12:27:29;;;;;;;33.40;23.48;;;15.10;59.80;;;;;;4990770;28;20077;-77
2021/03/24 12:30:17;;;;;;;40.60;24.58;;;15.00;63.10;;;;;;5054522;28;20052;-77
2021/03/24 12:32:44;;;;;;;36.83;24.27;;;15.10;67.90;;;;;;5056096;28;20124;-77
2021/03/24 12:35:25;;;;;;;41.33;24.67;;;15.10;68.00;;;;;;5039846;28;20041;-77
2021/03/24 12:37:58;;;;;;;39.53;24.50;;;15.20;65.00;;;;;;5033808;28;20045;-77
2021/03/24 12:40:25;;;;;;;35.10;23.60;;;15.10;67.00;;;;;;5062035;28;20091;-77
2021/03/24 12:43:04;;;;;;;40.45;24.77;;;14.90;67.10;;;;;;5067250;28;21013;-77
2021/03/24 12:45:40;;;;;;;33.00;22.92;;;14.80;67.90;;;;;;5051352;28;20045;-77
2021/03/24 12:48:08;;;;;;;33.58;22.35;;;14.80;64.60;;;;;;5033127;28;20037;-77
2021/03/24 12:50:48;;;;;;;36.90;23.23;;;15.00;67.40;;;;;;5049967;28;20178;-77
2021/03/24 12:53:36;;;;;;;35.33;21.52;;;15.10;66.20;;;;;;5050816;28;20047;-77
2021/03/24 12:56:26;;;;;;;33.70;24.40;;;15.20;64.90;;;;;;5051427;28;20044;-77
2021/03/24 12:58:56;;;;;;;35.53;22.05;;;15.40;60.70;;;;;;5051686;28;20431;-77
2021/03/24 13:01:47;;;;;;;36.75;23.48;;;15.50;67.40;;;;;;5065635;28;20117;-77
2021/03/24 13:04:19;;;;;;;40.38;23.08;;;15.60;64.40;;;;;;5070335;28;20048;-77
2021/03/24 13:07:14;;;;;;;36.28;22.70;;;15.40;64.40;;;;;;5071345;28;20040;-77
2021/03/24 13:09:43;;;;;;;36.70;22.90;;;15.20;64.20;;;;;;5065233;28;20334;-77
2021/03/24 13:12:31;;;;;;;31.67;19.67;;;15.10;65.60;;;;;;5049920;28;20063;-77
2021/03/24 13:15:36;;;;;;;30.92;18.25;;;15.10;60.90;;;;;;5049575;28;20045;-77
2021/03/24 13:18:13;;;;;;;29.38;17.95;;;15.20;60.10;;;;;;5039586;28;20062;-78
2021/03/24 13:20:52;;;;;;;24.65;15.73;;;15.40;63.00;;;;;;5053863;28;20048;-77
2021/03/24 13:23:41;;;;;;;27.15;17.42;;;15.50;60.30;;;;;;5070457;28;20040;-77
2021/03/24 13:26:22;;;;;;;28.27;16.83;;;15.60;61.80;;;;;;5070195;28;20037;-77
2021/03/24 13:28:53;;;;;;;26.90;16.75;;;15.60;60.80;;;;;;5069176;28;20048;-77
2021/03/24 13:31:43;;;;;;;27.60;17.42;;;15.80;64.60;;;;;;5052771;28;20056;-78
2021/03/24 13:34:35;;;;;;;23.15;12.88;;;15.90;61.80;;;;;;5056693;28;20406;-77
2021/03/24 13:37:02;;;;;;;25.95;15.38;;;15.90;61.70;;;;;;5070925;28;20418;-78
2021/03/24 13:40:06;;;;;;;26.73;13.68;;;15.70;63.00;;;;;;5066173;28;20040;-77
2021/03/24 13:42:38;;;;;;;24.75;16.60;;;15.60;58.50;;;;;;5032445;28;20380;-78
2021/03/24 13:45:16;;;;;;;24.83;16.23;;;15.60;60.70;;;;;;5028422;28;20042;-77
2021/03/24 13:47:54;;;;;;;29.33;17.25;;;15.50;63.50;;;;;;5030177;28;20073;-77
2021/03/24 13:50:27;;;;;;;28.73;16.80;;;15.50;65.30;;;;;;5028628;28;20052;-77
2021/03/24 13:53:03;;;;;;;27.83;16.17;;;15.60;65.90;;;;;;5065373;28;20064;-77
2021/03/24 13:55:53;;;;;;;25.00;16.88;;;15.80;63.40;;;;;;5066185;28;20500;-78
2021/03/24 13:58:53;;;;;;;24.55;14.98;;;15.90;62.40;;;;;;5043178;28;20047;-78
2021/03/24 14:01:28;;;;;;;25.75;14.50;;;16.00;55.60;;;;;;5048218;28;20060;-78
2021/03/24 14:04:00;;;;;;;21.27;13.05;;;16.00;62.90;;;;;;5049870;28;20477;-77
2021/03/24 14:06:35;;;;;;;24.50;15.15;;;15.90;60.00;;;;;;5049515;28;20040;-78
2021/03/24 14:09:21;;;;;;;24.27;14.32;;;15.90;58.30;;;;;;5050120;28;20041;-79
2021/03/24 14:12:11;;;;;;;21.60;14.18;;;15.80;54.60;;;;;;5032445;28;20744;-78
2021/03/24 14:15:02;;;;;;;27.85;15.18;;;15.70;58.40;;;;;;5046374;28;20045;-78
2021/03/24 14:17:36;;;;;;;22.80;15.30;;;15.60;58.70;;;;;;5047116;28;20041;-77
2021/03/24 14:20:31;;;;;;;26.52;15.65;;;15.40;60.90;;;;;;5043816;28;20803;-77
2021/03/24 14:23:48;;;;;;;25.15;16.40;;;15.30;53.80;;;;;;5050341;28;20044;-78
2021/03/24 14:26:58;;;;;;;30.95;15.55;;;15.20;54.60;;;;;;4996957;28;20046;-77
2021/03/24 14:29:27;;;;;;;28.80;17.75;;;15.30;60.90;;;;;;4965958;28;20046;-77